Map

Track Data

SID SEASON NUMBER BASIN SUBBASIN NAME ISO_TIME NATURE LAT LON WMO_WIND WMO_PRES WMO_AGENCY TRACK_TYPE DIST2LAND LANDFALL IFLAG USA_AGENCY USA_ATCF_ID USA_LAT USA_LON USA_RECORD USA_STATUS USA_WIND USA_PRES USA_SSHS USA_R34_NE USA_R34_SE USA_R34_SW USA_R34_NW USA_R50_NE USA_R50_SE USA_R50_SW USA_R50_NW USA_R64_NE USA_R64_SE USA_R64_SW USA_R64_NW USA_POCI USA_ROCI USA_RMW USA_EYE TOKYO_LAT TOKYO_LON TOKYO_GRADE TOKYO_WIND TOKYO_PRES TOKYO_R50_DIR TOKYO_R50_LONG TOKYO_R50_SHORT TOKYO_R30_DIR TOKYO_R30_LONG TOKYO_R30_SHORT TOKYO_LAND CMA_LAT CMA_LON CMA_CAT CMA_WIND CMA_PRES HKO_LAT HKO_LON HKO_CAT HKO_WIND HKO_PRES NEWDELHI_LAT NEWDELHI_LON NEWDELHI_GRADE NEWDELHI_WIND NEWDELHI_PRES NEWDELHI_CI NEWDELHI_DP NEWDELHI_POCI REUNION_LAT REUNION_LON REUNION_TYPE REUNION_WIND REUNION_PRES REUNION_TNUM REUNION_CI REUNION_RMW REUNION_R34_NE REUNION_R34_SE REUNION_R34_SW REUNION_R34_NW REUNION_R50_NE REUNION_R50_SE REUNION_R50_SW REUNION_R50_NW REUNION_R64_NE REUNION_R64_SE REUNION_R64_SW REUNION_R64_NW BOM_LAT BOM_LON BOM_TYPE BOM_WIND BOM_PRES BOM_TNUM BOM_CI BOM_RMW BOM_R34_NE BOM_R34_SE BOM_R34_SW BOM_R34_NW BOM_R50_NE BOM_R50_SE BOM_R50_SW BOM_R50_NW BOM_R64_NE BOM_R64_SE BOM_R64_SW BOM_R64_NW BOM_ROCI BOM_POCI BOM_EYE BOM_POS_METHOD BOM_PRES_METHOD NADI_LAT NADI_LON NADI_CAT NADI_WIND NADI_PRES WELLINGTON_LAT WELLINGTON_LON WELLINGTON_WIND WELLINGTON_PRES DS824_LAT DS824_LON DS824_STAGE DS824_WIND DS824_PRES TD9636_LAT TD9636_LON TD9636_STAGE TD9636_WIND TD9636_PRES TD9635_LAT TD9635_LON TD9635_WIND TD9635_PRES TD9635_ROCI NEUMANN_LAT NEUMANN_LON NEUMANN_CLASS NEUMANN_WIND NEUMANN_PRES MLC_LAT MLC_LON MLC_CLASS MLC_WIND MLC_PRES USA_GUST BOM_GUST BOM_GUST_PER REUNION_GUST REUNION_GUST_PER USA_SEAHGT USA_SEARAD_NE USA_SEARAD_SE USA_SEARAD_SW USA_SEARAD_NW STORM_SPEED STORM_DIR
2003284N19291 2003 86 NA NA MINDY 2003-10-10 18:00:00 TS 19.1000 -68.8000 40 1004 hurdat_atl main 22 22 O_____________ hurdat_atl AL182003 19.1000 -68.8000 TS 40 1004 0 1010 150 40 14 319
2003284N19291 2003 86 NA NA MINDY 2003-10-10 21:00:00 TS 19.6229 -69.2741 main 33 33 P_____________ AL182003 19.6229 -69.2741 TS 40 1003 0 1010 150 30 13 320
2003284N19291 2003 86 NA NA MINDY 2003-10-11 00:00:00 TS 20.1000 -69.7000 40 1002 hurdat_atl main 64 64 O_____________ hurdat_atl AL182003 20.1000 -69.7000 TS 40 1002 0 75 50 1010 150 20 12 320
2003284N19291 2003 86 NA NA MINDY 2003-10-11 03:00:00 TS 20.5072 -70.0506 main 94 94 P_____________ AL182003 20.5072 -70.0506 TS 40 1002 0 75 50 1010 150 20 10 321
2003284N19291 2003 86 NA NA MINDY 2003-10-11 06:00:00 TS 20.9000 -70.4000 40 1003 hurdat_atl main 124 124 O_____________ hurdat_atl AL182003 20.9000 -70.4000 TS 40 1003 0 75 50 1010 150 20 11 317
2003284N19291 2003 86 NA NA MINDY 2003-10-11 09:00:00 TS 21.3428 -70.8871 main 167 167 P_____________ AL182003 21.3428 -70.8871 TS 37 1005 0 100 87 1010 150 20 12 317
2003284N19291 2003 86 NA NA MINDY 2003-10-11 12:00:00 TS 21.8000 -71.3000 35 1007 hurdat_atl main 188 183 O_____________ hurdat_atl AL182003 21.8000 -71.3000 TS 35 1007 0 125 125 1010 150 20 10 331
2003284N19291 2003 86 NA NA MINDY 2003-10-11 15:00:00 TS 22.2497 -71.4382 main 199 197 P_____________ AL182003 22.2497 -71.4382 TS 35 1007 0 112 112 1010 150 25 9 348
2003284N19291 2003 86 NA NA MINDY 2003-10-11 18:00:00 TS 22.7000 -71.5000 35 1007 hurdat_atl main 228 228 O_____________ hurdat_atl AL182003 22.7000 -71.5000 TS 35 1007 0 100 100 1010 150 30 10 347
2003284N19291 2003 86 NA NA MINDY 2003-10-11 21:00:00 TS 23.1875 -71.6774 main 260 260 P_____________ AL182003 23.1875 -71.6774 TS 35 1006 0 100 100 1010 150 30 10 338
2003284N19291 2003 86 NA NA MINDY 2003-10-12 00:00:00 TS 23.6000 -71.9000 35 1006 hurdat_atl main 291 291 O_____________ hurdat_atl AL182003 23.6000 -71.9000 TS 35 1006 0 100 100 1010 150 30 8 323
2003284N19291 2003 86 NA NA MINDY 2003-10-12 03:00:00 TS 23.8151 -72.1950 main 302 302 P_____________ AL182003 23.8151 -72.1950 TS 32 1006 -1 80 80 1010 150 30 6 311
2003284N19291 2003 86 NA NA MINDY 2003-10-12 06:00:00 TS 24.0000 -72.4000 30 1007 hurdat_atl main 319 319 O_____________ hurdat_atl AL182003 24.0000 -72.4000 TD 30 1007 -1 60 60 1011 150 30 5 344
2003284N19291 2003 86 NA NA MINDY 2003-10-12 09:00:00 TS 24.3200 -72.3528 main 351 351 P_____________ AL182003 24.3200 -72.3528 TD 30 1007 -1 80 80 1010 135 45 7 15
2003284N19291 2003 86 NA NA MINDY 2003-10-12 12:00:00 TS 24.7000 -72.2000 30 1008 hurdat_atl main 399 399 O_____________ hurdat_atl AL182003 24.7000 -72.2000 TD 30 1008 -1 100 100 1010 120 60 8 12
2003284N19291 2003 86 NA NA MINDY 2003-10-12 15:00:00 TS 25.1447 -72.1599 main 443 443 P_____________ AL182003 25.1447 -72.1599 TD 30 1008 -1 1010 150 60 8 13
2003284N19291 2003 86 NA NA MINDY 2003-10-12 18:00:00 TS 25.5000 -72.0000 30 1008 hurdat_atl main 491 491 O_____________ hurdat_atl AL182003 25.5000 -72.0000 TD 30 1008 -1 1010 180 60 7 51
2003284N19291 2003 86 NA NA MINDY 2003-10-12 21:00:00 TS 25.6030 -71.5373 main 515 515 P_____________ AL182003 25.6030 -71.5373 TD 30 1008 -1 1011 180 60 9 84
2003284N19291 2003 86 NA NA MINDY 2003-10-13 00:00:00 TS 25.6000 -71.0000 30 1008 hurdat_atl main 532 532 O_____________ hurdat_atl AL182003 25.6000 -71.0000 TD 30 1008 -1 1012 180 60 8 87
2003284N19291 2003 86 NA NA MINDY 2003-10-13 03:00:00 TS 25.6495 -70.6499 main 549 549 P_____________ AL182003 25.6495 -70.6499 TD 30 1008 -1 1012 180 60 6 81
2003284N19291 2003 86 NA NA MINDY 2003-10-13 06:00:00 TS 25.7000 -70.3000 30 1008 hurdat_atl main 573 573 O_____________ hurdat_atl AL182003 25.7000 -70.3000 TD 30 1008 -1 1012 180 60 8 82
2003284N19291 2003 86 NA NA MINDY 2003-10-13 09:00:00 TS 25.7500 -69.8225 main 608 608 P_____________ AL182003 25.7500 -69.8225 TD 30 1008 -1 1011 180 60 9 84
2003284N19291 2003 86 NA NA MINDY 2003-10-13 12:00:00 TS 25.8000 -69.3000 30 1008 hurdat_atl main 637 637 O_____________ hurdat_atl AL182003 25.8000 -69.3000 TD 30 1008 -1 1011 180 60 10 84
2003284N19291 2003 86 NA NA MINDY 2003-10-13 15:00:00 TS 25.8576 -68.7701 main 677 677 P_____________ AL182003 25.8576 -68.7701 TD 30 1007 -1 1011 180 65 9 84
2003284N19291 2003 86 NA NA MINDY 2003-10-13 18:00:00 TS 25.9000 -68.3000 30 1007 hurdat_atl main 710 710 O_____________ hurdat_atl AL182003 25.9000 -68.3000 TD 30 1007 -1 1011 180 70 7 86
2003284N19291 2003 86 NA NA MINDY 2003-10-13 21:00:00 TS 25.9099 -67.9599 main 731 731 P_____________ AL182003 25.9099 -67.9599 TD 27 1007 -1 1011 180 70 5 90
2003284N19291 2003 86 NA NA MINDY 2003-10-14 00:00:00 TS 25.9000 -67.7000 25 1008 hurdat_atl main 742 O_____________ hurdat_atl AL182003 25.9000 -67.7000 TD 25 1008 -1 1011 180 70 5 92

About IBTrACS Database

This database is a web-friendly format of International Best Track Archive for Climate Stewardship (IBTrACS), a global best track data archive curated by NOAA dating back to 1842.

Updated: 2021-11-26